Time;durP1;ratioP1;P1;durP2;ratioP2;P2;SDS_P1;SDS_P2;PMS_P1;PMS_P2;Temp;Humidity;BMP_temperature;BMP_pressure;BME280_temperature;BME280_humidity;BME280_pressure;Samples;Min_cycle;Max_cycle;Signal;HPM_P1;HPM_P2
2022/11/25 00:01:32;;;;;;;21.58;4.25;;;;;;;8.91;98.26;100853.53;5048877;28;20120;-84
2022/11/25 00:03:58;;;;;;;23.23;4.35;;;;;;;8.93;98.05;100846.38;5049308;28;20380;-84
2022/11/25 00:06:32;;;;;;;20.10;4.75;;;;;;;8.97;98.31;100849.63;5049655;28;20473;-82
2022/11/25 00:08:58;;;;;;;17.25;4.28;;;;;;;8.96;98.33;100845.34;5047734;28;20033;-82
2022/11/25 00:11:24;;;;;;;16.95;3.90;;;;;;;8.96;98.19;100837.47;5043009;28;20025;-82
2022/11/25 00:13:50;;;;;;;18.33;4.30;;;;;;;8.96;98.16;100847.97;5048963;28;20082;-81
2022/11/25 00:16:18;;;;;;;20.08;4.00;;;;;;;8.94;98.54;100837.56;5047746;28;20464;-82
2022/11/25 00:18:49;;;;;;;19.40;4.28;;;;;;;8.96;98.54;100835.69;5048176;28;20029;-82
2022/11/25 00:21:17;;;;;;;21.38;4.85;;;;;;;8.96;98.58;100829.59;5049611;28;20043;-82
2022/11/25 00:23:43;;;;;;;12.85;3.83;;;;;;;8.96;98.64;100827.81;5047667;28;20025;-82
2022/11/25 00:26:11;;;;;;;19.77;4.43;;;;;;;8.97;98.69;100829.50;5048428;28;20032;-82
2022/11/25 00:28:38;;;;;;;23.42;5.30;;;;;;;8.97;98.81;100823.41;5044891;28;20028;-82
2022/11/25 00:31:11;;;;;;;17.45;4.22;;;;;;;8.95;98.69;100820.03;5044895;28;20032;-81
2022/11/25 00:33:37;;;;;;;18.27;4.10;;;;;;;8.97;98.67;100826.03;5049165;28;20041;-83
2022/11/25 00:36:04;;;;;;;18.00;4.38;;;;;;;8.97;98.65;100826.88;5049188;28;20021;-85
2022/11/25 00:38:30;;;;;;;20.33;4.18;;;;;;;8.95;99.23;100813.00;5048427;28;20447;-86
2022/11/25 00:46:24;;;;;;;19.88;4.65;;;;;;;8.95;98.87;100802.50;5036864;28;20132;-83
2022/11/25 00:48:49;;;;;;;23.15;4.82;;;;;;;8.95;98.79;100806.91;5048847;28;20021;-86
2022/11/25 00:51:14;;;;;;;15.60;4.30;;;;;;;8.93;99.42;100803.56;5062070;28;20827;-83
2022/11/25 00:53:40;;;;;;;19.10;4.22;;;;;;;8.93;99.42;100803.56;5067388;28;20035;-81
2022/11/25 00:56:14;;;;;;;19.77;4.68;;;;;;;8.92;99.58;100812.38;5066708;28;20021;-80
2022/11/25 00:58:41;;;;;;;20.77;4.45;;;;;;;8.94;99.39;100819.19;5044378;28;20050;-82
2022/11/25 01:01:06;;;;;;;19.55;4.18;;;;;;;8.95;99.76;100812.16;5041992;28;20025;-83
2022/11/25 01:03:32;;;;;;;17.92;3.90;;;;;;;8.93;100.00;100817.53;5045552;28;20062;-85
2022/11/25 01:06:01;;;;;;;17.15;4.18;;;;;;;8.93;99.98;100824.56;5047936;28;20024;-83
2022/11/25 01:08:29;;;;;;;15.50;3.92;;;;;;;8.94;100.00;100826.22;5049311;28;20029;-82
2022/11/25 01:11:06;;;;;;;18.10;4.40;;;;;;;8.96;100.00;100824.34;5051232;28;20067;-81
2022/11/25 01:13:33;;;;;;;16.65;3.92;;;;;;;8.95;100.00;100818.25;5043270;28;20031;-83
2022/11/25 01:16:02;;;;;;;14.10;3.55;;;;;;;8.97;100.00;100826.03;5052692;28;20647;-83
2022/11/25 01:18:29;;;;;;;21.40;4.25;;;;;;;8.97;100.00;100820.78;5044808;28;20049;-84
2022/11/25 01:20:54;;;;;;;14.63;4.15;;;;;;;8.99;100.00;100818.88;5051722;28;20500;-83
2022/11/25 01:23:20;;;;;;;22.30;4.40;;;;;;;9.02;100.00;100826.56;5051763;28;20045;-82
2022/11/25 01:25:46;;;;;;;25.60;4.35;;;;;;;9.02;100.00;100824.75;5052980;28;20061;-84
2022/11/25 01:28:12;;;;;;;20.50;4.50;;;;;;;9.04;100.00;100832.53;5051459;28;20029;-83
2022/11/25 01:30:39;;;;;;;19.55;4.70;;;;;;;9.04;100.00;100838.63;5052257;28;20055;-83
2022/11/25 01:33:04;;;;;;;15.38;3.78;;;;;;;9.05;100.00;100839.47;5050780;28;20021;-82
2022/11/25 01:35:30;;;;;;;16.60;3.75;;;;;;;9.08;100.00;100839.25;5045077;28;20033;-82
2022/11/25 01:37:55;;;;;;;19.17;4.30;;;;;;;9.08;100.00;100836.63;5051995;28;20024;-81
2022/11/25 01:40:20;;;;;;;16.55;3.92;;;;;;;9.06;100.00;100841.97;5050575;28;20029;-84
2022/11/25 01:42:47;;;;;;;15.93;4.28;;;;;;;9.08;100.00;100849.75;5048212;28;20026;-83
2022/11/25 01:45:21;;;;;;;16.90;4.10;;;;;;;9.11;100.00;100854.78;5051846;28;20426;-81
2022/11/25 01:47:53;;;;;;;17.95;4.07;;;;;;;9.10;100.00;100858.34;5051291;28;20460;-82
2022/11/25 01:50:24;;;;;;;18.00;4.57;;;;;;;9.11;100.00;100866.13;5048883;28;20394;-83
2022/11/25 01:52:53;;;;;;;21.63;4.45;;;;;;;9.10;100.00;100869.69;5032746;28;20060;-82
2022/11/25 01:55:26;;;;;;;18.13;4.53;;;;;;;9.08;100.00;100868.13;5049358;28;20033;-83
2022/11/25 01:58:04;;;;;;;18.80;4.00;;;;;;;9.14;100.00;100869.47;5052804;28;20434;-81
2022/11/25 02:00:30;;;;;;;18.77;4.60;;;;;;;9.14;100.00;100885.25;5052070;28;20410;-82
2022/11/25 02:02:57;;;;;;;21.52;4.35;;;;;;;9.17;100.00;100885.88;5049860;28;20047;-81
2022/11/25 02:05:38;;;;;;;16.77;3.80;;;;;;;9.18;100.00;100882.28;5046206;28;20056;-81
2022/11/25 02:08:06;;;;;;;22.25;4.50;;;;;;;9.19;100.00;100893.63;5050754;28;20025;-81
2022/11/25 02:10:34;;;;;;;19.23;4.25;;;;;;;9.20;100.00;100896.16;5050902;28;20428;-81
2022/11/25 02:12:59;;;;;;;20.00;4.28;;;;;;;9.18;100.00;100892.78;5051177;28;20024;-82
2022/11/25 02:15:27;;;;;;;19.60;4.85;;;;;;;9.19;100.00;100896.25;5050112;28;20021;-83
2022/11/25 02:17:52;;;;;;;18.42;4.55;;;;;;;9.21;100.00;100899.66;5052608;28;20036;-80
2022/11/25 02:20:22;;;;;;;19.77;3.90;;;;;;;9.21;100.00;100913.63;5048040;28;20091;-82
2022/11/25 02:22:58;;;;;;;16.95;4.18;;;;;;;9.19;100.00;100904.97;5031963;28;20395;-82
2022/11/25 02:25:27;;;;;;;17.88;4.15;;;;;;;9.19;100.00;100904.97;5032469;28;20446;-82
2022/11/25 02:28:14;;;;;;;17.63;4.43;;;;;;;9.20;100.00;100906.66;5031720;28;20029;-84
2022/11/25 02:30:40;;;;;;;16.95;4.00;;;;;;;9.15;100.00;100919.25;5048840;28;20029;-84
2022/11/25 02:33:06;;;;;;;19.48;4.03;;;;;;;9.11;100.00;100923.03;5048642;28;20028;-83
2022/11/25 02:35:35;;;;;;;19.10;4.18;;;;;;;9.08;100.00;100912.75;5050535;28;20033;-83
2022/11/25 02:38:10;;;;;;;18.63;4.00;;;;;;;9.02;100.00;100921.88;5043684;28;20056;-83
2022/11/25 02:40:51;;;;;;;17.33;4.05;;;;;;;8.98;100.00;100922.16;5050389;28;20029;-83
2022/11/25 02:43:16;;;;;;;20.67;3.88;;;;;;;8.92;100.00;100926.03;5050501;28;20025;-85
2022/11/25 02:46:00;;;;;;;17.88;3.38;;;;;;;8.91;100.00;100929.63;5048997;28;20028;-84
2022/11/25 02:48:28;;;;;;;19.83;4.25;;;;;;;8.87;100.00;100919.44;5048891;28;20045;-84
2022/11/25 02:50:54;;;;;;;17.13;3.85;;;;;;;8.85;100.00;100911.66;5060777;28;20507;-84
2022/11/25 02:53:19;;;;;;;14.88;4.05;;;;;;;8.83;100.00;100910.91;5069680;28;20048;-86
2022/11/25 02:55:45;;;;;;;14.52;3.13;;;;;;;8.82;100.00;100900.53;5048328;28;20032;-84
2022/11/25 02:58:11;;;;;;;13.40;3.17;;;;;;;8.79;100.00;100881.38;5048812;28;20104;-83
2022/11/25 03:00:37;;;;;;;14.07;3.10;;;;;;;8.75;100.00;100864.16;5048329;28;20033;-83
2022/11/25 03:03:03;;;;;;;12.10;3.17;;;;;;;8.75;100.00;100851.06;5048217;28;20119;-84
2022/11/25 03:05:28;;;;;;;13.77;3.50;;;;;;;8.74;100.00;100835.41;5048768;28;20092;-85
2022/11/25 03:07:53;;;;;;;12.63;3.45;;;;;;;8.71;100.00;100846.97;5045697;28;20059;-83
2022/11/25 03:10:19;;;;;;;15.43;3.20;;;;;;;8.68;100.00;100844.53;5047297;28;20473;-85
2022/11/25 03:12:44;;;;;;;12.85;3.00;;;;;;;8.65;100.00;100855.22;5045815;28;20029;-83
2022/11/25 03:15:10;;;;;;;14.82;3.28;;;;;;;8.62;100.00;100876.41;5046965;28;20393;-83
2022/11/25 03:17:36;;;;;;;13.02;2.65;;;;;;;8.59;100.00;100883.66;5047299;28;20032;-83
2022/11/25 03:20:06;;;;;;;12.27;3.20;;;;;;;8.55;100.00;100887.41;5048318;28;20090;-82
2022/11/25 03:22:31;;;;;;;16.02;3.47;;;;;;;8.53;100.00;100873.56;5049423;28;20035;-83
2022/11/25 03:24:57;;;;;;;13.27;3.28;;;;;;;8.52;100.00;100866.63;5048413;28;20037;-84
2022/11/25 03:27:22;;;;;;;13.00;2.75;;;;;;;8.51;100.00;100868.41;5048187;28;20031;-84
2022/11/25 03:29:48;;;;;;;10.65;2.63;;;;;;;8.47;100.00;100874.81;5044523;28;20055;-83
2022/11/25 03:32:13;;;;;;;11.98;2.80;;;;;;;8.46;100.00;100894.94;5050432;28;20107;-84
2022/11/25 03:34:39;;;;;;;12.18;2.88;;;;;;;8.45;100.00;100908.16;5049321;28;20064;-83
2022/11/25 03:37:04;;;;;;;9.30;2.60;;;;;;;8.42;100.00;100918.84;5048899;28;20051;-83
2022/11/25 03:39:30;;;;;;;9.32;2.58;;;;;;;8.39;100.00;100919.00;5050249;28;20063;-84
2022/11/25 03:41:55;;;;;;;11.05;2.45;;;;;;;8.35;100.00;100918.34;5049002;28;20036;-83
2022/11/25 03:44:20;;;;;;;8.93;2.00;;;;;;;8.36;100.00;100920.03;5043781;28;20025;-84
2022/11/25 03:46:46;;;;;;;10.93;2.03;;;;;;;8.32;100.00;100923.75;5049391;28;20048;-84
2022/11/25 03:49:11;;;;;;;8.13;1.90;;;;;;;8.32;100.00;100917.69;5050367;28;20044;-84
2022/11/25 03:51:36;;;;;;;8.95;2.13;;;;;;;8.31;100.00;100926.50;5067069;28;20028;-84
2022/11/25 03:54:02;;;;;;;9.18;2.28;;;;;;;8.28;100.00;100931.94;5064514;28;20033;-84
2022/11/25 03:56:28;;;;;;;11.07;2.30;;;;;;;8.23;100.00;100929.59;5049597;28;20036;-83
2022/11/25 03:58:53;;;;;;;7.30;2.22;;;;;;;8.22;100.00;100927.06;5050033;28;20100;-83
2022/11/25 04:01:19;;;;;;;8.52;2.35;;;;;;;8.21;100.00;100931.47;5046648;28;20024;-83
2022/11/25 04:03:44;;;;;;;7.80;2.05;;;;;;;8.22;100.00;100927.06;5039889;28;20513;-84
2022/11/25 04:06:09;;;;;;;6.93;1.70;;;;;;;8.17;100.00;100943.94;5047937;28;20080;-84
2022/11/25 04:08:35;;;;;;;7.68;2.00;;;;;;;8.15;100.00;100948.44;5045932;28;20052;-83
2022/11/25 04:11:01;;;;;;;7.30;1.88;;;;;;;8.14;100.00;100938.88;5048383;28;20036;-83
2022/11/25 04:13:26;;;;;;;6.32;1.60;;;;;;;8.11;100.00;100946.09;5045396;28;20021;-83
2022/11/25 04:15:52;;;;;;;7.22;1.98;;;;;;;8.06;100.00;100958.66;5046543;28;20086;-83
2022/11/25 04:18:19;;;;;;;5.90;1.90;;;;;;;8.02;100.00;100957.16;5042079;28;20028;-83
2022/11/25 04:20:45;;;;;;;7.65;1.70;;;;;;;7.97;100.00;100953.94;5047561;28;20090;-84
2022/11/25 04:23:11;;;;;;;6.97;1.67;;;;;;;7.93;100.00;100958.53;5045791;28;20037;-84
2022/11/25 04:25:37;;;;;;;8.10;1.70;;;;;;;7.90;100.00;100968.34;5048577;28;20044;-83
2022/11/25 04:28:04;;;;;;;6.93;1.60;;;;;;;7.85;100.00;100973.88;5048650;28;20488;-84
2022/11/25 04:30:29;;;;;;;8.07;1.50;;;;;;;7.86;100.00;100978.19;5047789;28;20052;-83
2022/11/25 04:32:54;;;;;;;6.63;1.38;;;;;;;7.80;100.00;100984.63;5048312;28;20120;-84
2022/11/25 04:35:20;;;;;;;8.82;1.60;;;;;;;7.76;100.00;100995.41;5045703;28;20063;-84
2022/11/25 04:37:45;;;;;;;6.72;1.90;;;;;;;7.74;100.00;101005.13;5039112;28;20025;-84
2022/11/25 04:40:11;;;;;;;8.15;1.80;;;;;;;7.70;100.00;101008.84;5048420;28;20409;-83
2022/11/25 04:42:38;;;;;;;6.85;1.63;;;;;;;7.72;100.00;101007.84;5047260;28;20049;-83
2022/11/25 04:45:10;;;;;;;7.50;1.75;;;;;;;7.69;100.00;101010.63;5051475;28;20025;-84
2022/11/25 04:47:35;;;;;;;5.55;1.35;;;;;;;7.70;100.00;101003.63;5051865;28;20033;-83
2022/11/25 04:50:01;;;;;;;4.95;1.63;;;;;;;7.66;100.00;101004.75;5054874;28;20103;-83
2022/11/25 04:52:26;;;;;;;8.05;2.10;;;;;;;7.65;100.00;101005.69;5064846;28;20025;-83
2022/11/25 04:54:52;;;;;;;10.00;1.95;;;;;;;7.63;100.00;100997.91;5039861;28;20041;-83
2022/11/25 04:57:21;;;;;;;6.00;1.55;;;;;;;7.62;100.00;101005.84;5048375;28;20053;-84
2022/11/25 04:59:47;;;;;;;5.90;1.67;;;;;;;7.62;100.00;101016.34;5052719;28;20024;-82
2022/11/25 05:02:25;;;;;;;7.40;1.85;;;;;;;7.61;100.00;101014.66;5052605;28;20384;-83
2022/11/25 05:04:53;;;;;;;6.30;1.50;;;;;;;7.54;100.00;101030.69;5051438;28;20028;-84
2022/11/25 05:07:23;;;;;;;7.65;1.80;;;;;;;7.55;100.00;101024.53;5051531;28;20028;-83
2022/11/25 05:09:49;;;;;;;8.05;1.90;;;;;;;7.52;100.00;101018.63;5053293;28;20104;-83
2022/11/25 05:12:19;;;;;;;8.75;2.00;;;;;;;7.50;100.00;101029.19;5048183;28;20249;-83
2022/11/25 05:14:44;;;;;;;8.43;1.73;;;;;;;7.48;100.00;101027.59;5051397;28;20025;-83
2022/11/25 05:17:14;;;;;;;8.95;2.25;;;;;;;7.39;100.00;101026.34;5053030;28;20439;-83
2022/11/25 05:19:40;;;;;;;7.40;2.22;;;;;;;7.40;100.00;101035.06;5052419;28;20029;-83
2022/11/25 05:22:09;;;;;;;7.38;2.60;;;;;;;7.32;100.00;101032.03;5050299;28;20105;-83
2022/11/25 05:24:35;;;;;;;8.20;2.30;;;;;;;7.31;100.00;101031.19;5052556;28;20076;-82
2022/11/25 05:27:00;;;;;;;9.95;3.08;;;;;;;7.31;100.00;101027.72;5050393;28;20053;-84
2022/11/25 05:29:25;;;;;;;9.13;3.10;;;;;;;7.26;100.00;101022.78;5047426;28;20148;-83
2022/11/25 05:31:51;;;;;;;8.23;2.60;;;;;;;7.25;100.00;101026.31;5051209;28;20041;-82
2022/11/25 05:34:16;;;;;;;6.82;2.67;;;;;;;7.20;100.00;101030.94;5051437;28;20035;-83
2022/11/25 05:36:41;;;;;;;8.32;3.05;;;;;;;7.18;100.00;101027.56;5052452;28;20620;-84
2022/11/25 05:39:07;;;;;;;7.10;2.88;;;;;;;7.15;100.00;101025.13;5034884;28;20028;-83
2022/11/25 05:41:32;;;;;;;8.93;3.45;;;;;;;7.14;100.00;101033.91;5049900;28;20112;-83
2022/11/25 05:43:58;;;;;;;7.05;3.80;;;;;;;7.12;100.00;101033.16;5053028;28;20025;-83
2022/11/25 05:46:23;;;;;;;9.13;4.38;;;;;;;7.08;100.00;101036.88;5044373;28;20029;-82
2022/11/25 05:48:52;;;;;;;9.60;4.00;;;;;;;7.06;100.00;101044.81;5048647;28;20029;-83
2022/11/25 05:51:17;;;;;;;9.98;4.45;;;;;;;7.00;100.00;101049.56;5065679;28;20028;-83
2022/11/25 05:53:43;;;;;;;12.25;4.75;;;;;;;7.02;100.00;101047.69;5063153;28;20032;-82
2022/11/25 05:56:09;;;;;;;11.73;4.97;;;;;;;6.98;100.00;101051.41;5049466;28;20066;-82
2022/11/25 05:58:34;;;;;;;10.68;4.75;;;;;;;6.95;100.00;101057.66;5050572;28;20048;-82
2022/11/25 06:00:59;;;;;;;10.20;4.50;;;;;;;6.91;100.00;101051.75;5048082;28;20053;-84
2022/11/25 06:03:28;;;;;;;10.70;4.97;;;;;;;6.91;100.00;101058.75;5044035;28;20061;-84
2022/11/25 06:05:57;;;;;;;9.45;4.80;;;;;;;6.93;100.00;101061.28;5049351;28;20127;-82
2022/11/25 06:08:22;;;;;;;12.88;5.60;;;;;;;6.93;100.00;101053.44;5050116;28;20028;-83
2022/11/25 06:10:51;;;;;;;12.60;5.00;;;;;;;6.94;100.00;101055.97;5049172;28;20432;-85
2022/11/25 06:13:17;;;;;;;15.27;5.60;;;;;;;6.95;100.00;101064.66;5050552;28;20549;-82
2022/11/25 06:15:43;;;;;;;14.98;5.50;;;;;;;6.95;100.00;101069.88;5047627;28;20362;-82
2022/11/25 06:18:10;;;;;;;12.65;4.70;;;;;;;6.91;100.00;101067.44;5048491;28;20424;-82
2022/11/25 06:20:36;;;;;;;12.20;5.35;;;;;;;6.91;100.00;101079.69;5049782;28;20029;-83
2022/11/25 06:23:01;;;;;;;11.07;4.70;;;;;;;6.91;100.00;101077.06;5043201;28;20039;-82
2022/11/25 06:25:27;;;;;;;11.75;4.82;;;;;;;6.91;100.00;101074.44;5047927;28;20041;-82
2022/11/25 06:27:53;;;;;;;16.00;4.70;;;;;;;6.92;100.00;101073.53;5047758;28;20051;-82
2022/11/25 06:30:19;;;;;;;14.32;5.00;;;;;;;6.93;100.00;101084.81;5048084;28;20025;-83
2022/11/25 06:32:45;;;;;;;10.88;4.60;;;;;;;6.95;100.00;101088.19;5049137;28;20381;-82
2022/11/25 06:35:10;;;;;;;15.35;4.53;;;;;;;6.92;100.00;101086.59;5050461;28;20021;-82
2022/11/25 06:37:36;;;;;;;13.13;4.22;;;;;;;6.91;100.00;101098.84;5045995;28;20036;-82
2022/11/25 06:40:02;;;;;;;10.00;3.88;;;;;;;6.91;100.00;101101.44;5046463;28;20029;-82
2022/11/25 06:42:28;;;;;;;11.07;3.92;;;;;;;6.90;100.00;101093.69;5039157;28;20025;-83
2022/11/25 06:44:53;;;;;;;10.88;3.80;;;;;;;6.87;100.00;101097.31;5049750;28;20032;-82
2022/11/25 06:47:18;;;;;;;11.15;3.78;;;;;;;6.86;100.00;101110.47;5050219;28;20033;-83
2022/11/25 06:49:44;;;;;;;11.82;3.47;;;;;;;6.85;100.00;101107.03;5051912;28;20025;-83
2022/11/25 06:52:09;;;;;;;11.50;3.17;;;;;;;6.84;100.00;101107.09;5070938;28;20031;-82
2022/11/25 06:54:39;;;;;;;12.02;3.42;;;;;;;6.80;100.00;101113.41;5055056;28;20099;-83
2022/11/25 06:57:08;;;;;;;8.77;3.05;;;;;;;6.78;100.00;101113.47;5049201;28;20118;-83
2022/11/25 06:59:34;;;;;;;7.82;3.40;;;;;;;6.75;100.00;101113.66;5050437;28;20040;-82
2022/11/25 07:02:00;;;;;;;15.65;3.40;;;;;;;6.74;100.00;101122.41;5049814;28;20033;-83
2022/11/25 07:04:25;;;;;;;9.23;3.17;;;;;;;6.69;100.00;101124.44;5049314;28;20519;-83
2022/11/25 07:06:50;;;;;;;11.90;3.67;;;;;;;6.67;100.00;101128.91;5049506;28;20048;-83
2022/11/25 07:09:18;;;;;;;11.00;3.28;;;;;;;6.68;100.00;101121.91;5050447;28;20021;-83
2022/11/25 07:11:44;;;;;;;11.65;3.60;;;;;;;6.62;100.00;101128.31;5042894;28;20044;-83
2022/11/25 07:14:12;;;;;;;11.70;3.83;;;;;;;6.61;100.00;101142.31;5048205;28;20044;-83
2022/11/25 07:16:39;;;;;;;11.23;3.28;;;;;;;6.59;100.00;101149.38;5049251;28;20111;-83
2022/11/25 07:19:04;;;;;;;11.88;4.13;;;;;;;6.61;100.00;101150.16;5049393;28;20025;-83
2022/11/25 07:21:31;;;;;;;13.63;3.55;;;;;;;6.58;100.00;101152.94;5049769;28;20481;-83
2022/11/25 07:23:59;;;;;;;13.15;3.47;;;;;;;6.57;100.00;101161.69;5049888;28;20057;-83
2022/11/25 07:26:28;;;;;;;13.68;3.67;;;;;;;6.56;100.00;101166.09;4998124;28;20630;-83
2022/11/25 07:28:54;;;;;;;9.98;3.10;;;;;;;6.54;100.00;101174.94;5038005;28;20021;-83
2022/11/25 07:31:26;;;;;;;9.38;3.45;;;;;;;6.54;100.00;101167.09;5046054;28;20040;-83
2022/11/25 07:33:54;;;;;;;14.27;3.70;;;;;;;6.50;100.00;101166.41;5049355;28;20059;-83
2022/11/25 07:36:20;;;;;;;12.25;3.65;;;;;;;6.52;100.00;101176.78;5048332;28;20111;-83
2022/11/25 07:38:46;;;;;;;15.77;3.72;;;;;;;6.52;100.00;101184.63;5048707;28;20125;-83
2022/11/25 07:41:17;;;;;;;11.93;3.67;;;;;;;6.52;100.00;101189.84;5048393;28;20028;-83
2022/11/25 07:43:46;;;;;;;11.68;3.65;;;;;;;6.52;100.00;101195.06;5048170;28;20104;-83
2022/11/25 07:46:12;;;;;;;11.77;3.80;;;;;;;6.54;100.00;101204.53;5046218;28;20075;-83
2022/11/25 07:48:38;;;;;;;14.15;4.45;;;;;;;6.54;100.00;101201.91;5047471;28;20045;-82
2022/11/25 07:51:04;;;;;;;13.48;4.20;;;;;;;6.56;100.00;101207.06;5058404;28;20058;-82
2022/11/25 07:53:29;;;;;;;14.48;4.00;;;;;;;6.54;100.00;101220.22;5048884;28;20497;-83
2022/11/25 07:55:55;;;;;;;11.82;3.70;;;;;;;6.57;100.00;101219.22;5048424;28;20031;-82
2022/11/25 07:58:20;;;;;;;13.85;4.38;;;;;;;6.58;100.00;101220.91;5046306;28;20366;-82
2022/11/25 08:00:46;;;;;;;14.25;4.00;;;;;;;6.61;100.00;101223.34;5046374;28;20041;-83
2022/11/25 08:03:11;;;;;;;11.90;3.75;;;;;;;6.64;100.00;101224.97;5047986;28;20032;-82
2022/11/25 08:05:36;;;;;;;15.32;4.72;;;;;;;6.66;100.00;101237.03;5069285;28;20024;-81
2022/11/25 08:08:02;;;;;;;11.05;3.78;;;;;;;6.70;100.00;101235.09;5058702;28;20028;-81
2022/11/25 08:10:27;;;;;;;12.27;3.80;;;;;;;6.74;100.00;101236.63;5047960;28;20025;-82
2022/11/25 08:12:53;;;;;;;10.57;3.58;;;;;;;6.76;100.00;101235.63;5049471;28;20021;-82
2022/11/25 08:15:21;;;;;;;11.05;3.55;;;;;;;6.79;100.00;101245.94;5048781;28;20059;-82
2022/11/25 08:17:48;;;;;;;12.63;4.25;;;;;;;6.83;100.00;101250.09;5048212;28;20337;-82
2022/11/25 08:20:14;;;;;;;12.35;3.55;;;;;;;6.88;100.00;101248.09;5042335;28;20021;-82
2022/11/25 08:22:39;;;;;;;15.13;3.97;;;;;;;6.92;100.00;101254.00;5046775;28;20040;-82
2022/11/25 08:25:05;;;;;;;12.95;3.75;;;;;;;6.96;100.00;101267.75;5048691;28;20041;-86
2022/11/25 08:27:31;;;;;;;15.15;4.22;;;;;;;7.00;100.00;101271.91;5049356;28;20028;-80
2022/11/25 08:29:56;;;;;;;12.60;4.00;;;;;;;7.04;100.00;101266.44;5048683;28;20020;-83
2022/11/25 08:32:22;;;;;;;13.00;4.03;;;;;;;7.07;100.00;101268.03;5049564;28;20546;-79
2022/11/25 08:34:50;;;;;;;12.10;3.90;;;;;;;7.10;100.00;101268.72;5050202;28;20029;-80
2022/11/25 08:37:16;;;;;;;11.30;3.92;;;;;;;7.14;100.00;101266.78;5048112;28;20029;-80
2022/11/25 08:39:41;;;;;;;11.25;4.03;;;;;;;7.16;100.00;101271.00;5034832;28;20077;-80
2022/11/25 08:42:07;;;;;;;11.82;4.10;;;;;;;7.20;100.00;101266.44;5048424;28;20031;-80
2022/11/25 08:44:32;;;;;;;13.10;4.03;;;;;;;7.23;100.00;101268.94;5048196;28;20021;-80
2022/11/25 08:46:57;;;;;;;11.98;4.20;;;;;;;7.29;100.00;101265.16;5049507;28;20028;-80
2022/11/25 08:49:25;;;;;;;11.60;3.92;;;;;;;7.32;100.00;101270.22;5047390;28;20108;-80
2022/11/25 08:51:51;;;;;;;10.70;3.78;;;;;;;7.36;100.00;101271.72;5059020;28;20021;-80
2022/11/25 08:54:17;;;;;;;11.52;4.45;;;;;;;7.42;100.00;101281.88;5042675;28;20082;-81
2022/11/25 08:56:42;;;;;;;12.77;4.28;;;;;;;7.46;100.00;101281.63;5047901;28;20057;-81
2022/11/25 08:59:08;;;;;;;14.95;4.90;;;;;;;7.51;100.00;101276.97;5049179;28;20075;-84
2022/11/25 09:01:33;;;;;;;11.93;4.47;;;;;;;7.57;100.00;101273.19;5048275;28;20490;-80
2022/11/25 09:03:59;;;;;;;16.35;4.30;;;;;;;7.63;100.00;101285.13;5048691;28;20021;-81
2022/11/25 09:06:26;;;;;;;18.17;5.07;;;;;;;7.68;100.00;101293.56;5048991;28;20021;-80
2022/11/25 09:08:55;;;;;;;13.95;4.07;;;;;;;7.70;100.00;101289.94;5048636;28;20428;-80
2022/11/25 09:11:20;;;;;;;15.57;4.70;;;;;;;7.78;100.00;101299.97;5038348;28;20017;-80
2022/11/25 09:13:45;;;;;;;10.82;4.38;;;;;;;7.82;100.00;101296.25;5028929;28;20478;-80
2022/11/25 09:16:11;;;;;;;14.00;4.68;;;;;;;7.86;100.00;101303.00;5028872;28;20029;-80
2022/11/25 09:18:37;;;;;;;13.57;4.80;;;;;;;7.89;100.00;101302.84;5026120;28;20055;-80
2022/11/25 09:21:11;;;;;;;12.13;4.40;;;;;;;7.95;100.00;101299.88;5047897;28;20086;-79
2022/11/25 09:23:38;;;;;;;16.05;4.80;;;;;;;7.99;100.00;101314.50;5045919;28;20398;-80
2022/11/25 09:26:05;;;;;;;11.73;4.53;;;;;;;8.02;100.00;101314.34;5045822;28;20108;-80
2022/11/25 09:28:30;;;;;;;17.35;4.85;;;;;;;8.08;100.00;101314.00;5039214;28;20044;-84
2022/11/25 09:30:55;;;;;;;15.50;4.95;;;;;;;8.14;100.00;101324.13;5049555;28;20099;-80
2022/11/25 09:33:21;;;;;;;16.95;5.03;;;;;;;8.17;100.00;101328.38;5050678;28;20479;-83
2022/11/25 09:35:47;;;;;;;14.45;4.97;;;;;;;8.20;100.00;101330.81;5051722;28;20021;-80
2022/11/25 09:38:13;;;;;;;14.07;4.70;;;;;;;8.25;100.00;101327.94;5050968;28;20025;-84
2022/11/25 09:40:54;;;;;;;15.38;4.82;;;;;;;8.30;100.00;101333.75;5050873;28;20028;-81
2022/11/25 09:47:03;;;;;;;14.10;5.15;;;;;;;8.39;100.00;101344.59;5042993;28;20063;-81
2022/11/25 09:49:38;;;;;;;15.02;4.93;;;;;;;8.41;100.00;101347.16;5035662;28;20498;-80
2022/11/25 09:52:12;;;;;;;12.10;4.43;;;;;;;8.46;100.00;101352.97;5033091;28;20652;-80
2022/11/25 09:54:43;;;;;;;12.15;4.25;;;;;;;8.51;100.00;101358.81;5039835;28;20045;-80
2022/11/25 09:57:28;;;;;;;14.13;4.38;;;;;;;8.53;100.00;101351.69;5049622;28;20029;-81
2022/11/25 10:00:11;;;;;;;17.38;5.10;;;;;;;8.61;100.00;101362.56;5035379;28;20030;-80
2022/11/25 10:02:44;;;;;;;13.80;4.45;;;;;;;8.67;100.00;101358.75;5038816;28;20025;-80
2022/11/25 10:05:22;;;;;;;17.45;4.70;;;;;;;8.71;100.00;101366.34;5043345;28;20099;-80
2022/11/25 10:07:52;;;;;;;14.45;4.20;;;;;;;8.76;100.00;101364.31;5045838;28;20033;-79
2022/11/25 10:10:28;;;;;;;15.38;4.13;;;;;;;8.82;100.00;101372.78;5049075;28;20033;-80
2022/11/25 10:12:57;;;;;;;12.98;3.67;;;;;;;8.83;100.00;101371.84;5050073;28;20120;-79
2022/11/25 10:15:29;;;;;;;14.27;3.88;;;;;;;8.90;100.00;101383.66;5050285;28;20033;-80
2022/11/25 10:17:59;;;;;;;12.55;3.92;;;;;;;8.95;100.00;101384.25;5051360;28;20046;-80
2022/11/25 10:20:29;;;;;;;17.33;4.45;;;;;;;9.03;100.00;101398.59;5048162;28;20043;-80
2022/11/25 10:23:11;;;;;;;13.93;4.00;;;;;;;9.07;100.00;101399.25;5049725;28;20059;-81
2022/11/25 10:25:41;;;;;;;14.88;4.18;;;;;;;9.08;100.00;101396.53;5050469;28;20091;-80
2022/11/25 10:28:42;;;;;;;14.35;3.72;;;;;;;9.14;100.00;101405.00;5049354;28;20025;-81
2022/11/25 10:31:17;;;;;;;11.98;3.63;;;;;;;9.21;100.00;101404.56;5048266;28;20032;-80
2022/11/25 10:33:46;;;;;;;12.82;3.78;;;;;;;9.23;100.00;101418.44;5050284;28;20045;-80
2022/11/25 10:36:17;;;;;;;12.52;3.67;;;;;;;9.30;100.00;101417.13;5048731;28;20024;-80
2022/11/25 10:39:04;;;;;;;15.45;3.63;;;;;;;9.35;100.00;101420.34;5047761;28;20106;-81
2022/11/25 10:41:36;;;;;;;12.60;3.42;;;;;;;9.36;100.00;101416.78;5037974;28;20389;-80
2022/11/25 10:44:11;;;;;;;10.15;3.17;;;;;;;9.42;100.00;101424.28;5032068;28;20464;-80
2022/11/25 10:46:49;;;;;;;11.45;3.72;;;;;;;9.43;100.00;101428.59;5037582;28;20025;-81
2022/11/25 10:49:37;;;;;;;12.27;3.60;;;;;;;9.53;100.00;101433.28;5048368;28;20080;-81
2022/11/25 10:52:11;;;;;;;8.10;2.67;;;;;;;9.58;99.89;101432.06;5044158;28;20017;-81
2022/11/25 10:54:39;;;;;;;11.05;3.45;;;;;;;9.63;98.91;101437.06;5033941;28;20029;-81
2022/11/25 10:57:25;;;;;;;11.20;3.08;;;;;;;9.69;99.56;101434.91;5042998;28;20032;-79
2022/11/25 10:59:59;;;;;;;10.60;3.10;;;;;;;9.72;98.61;101439.97;5037358;28;20033;-80
2022/11/25 11:02:28;;;;;;;8.48;3.15;;;;;;;9.80;99.61;101446.53;5047380;28;20132;-80
2022/11/25 11:05:08;;;;;;;13.15;3.40;;;;;;;9.85;96.63;101449.72;5047129;28;20024;-80
2022/11/25 11:07:44;;;;;;;12.80;3.45;;;;;;;9.90;97.44;101447.66;5031311;28;20079;-82
2022/11/25 11:10:25;;;;;;;12.30;3.05;;;;;;;9.97;96.64;101454.22;5032305;28;20022;-80
2022/11/25 11:13:03;;;;;;;11.48;3.08;;;;;;;10.04;95.69;101461.66;5047165;28;20025;-80
2022/11/25 11:15:45;;;;;;;9.82;3.28;;;;;;;10.04;97.20;101461.66;5043429;28;20040;-80
2022/11/25 11:18:38;;;;;;;11.65;3.15;;;;;;;10.17;95.56;101460.91;5048254;28;20525;-80
2022/11/25 11:21:06;;;;;;;9.60;3.30;;;;;;;10.23;94.95;101471.91;5030795;28;20021;-82
2022/11/25 11:23:47;;;;;;;13.57;3.03;;;;;;;10.32;94.45;101462.59;5031430;28;20053;-80
2022/11/25 11:26:23;;;;;;;11.68;3.10;;;;;;;10.34;94.06;101469.44;5033164;28;20139;-80
2022/11/25 11:29:13;;;;;;;10.10;2.78;;;;;;;10.44;94.65;101480.25;5030140;28;20045;-81
2022/11/25 11:31:44;;;;;;;10.40;2.67;;;;;;;10.44;91.57;101479.41;5030138;28;20589;-80
2022/11/25 11:34:36;;;;;;;9.57;2.85;;;;;;;10.52;90.84;101482.41;5040024;28;20025;-81